createdAt,value
2022-07-27T00:00:08.595Z,36.34
2022-07-27T00:06:39.661Z,36.28
2022-07-27T00:13:05.409Z,36.22
2022-07-27T00:19:33.734Z,36.36
2022-07-27T00:26:06.827Z,36.18
2022-07-27T00:32:32.348Z,36.3
2022-07-27T00:39:00.355Z,36.21
2022-07-27T00:45:29.725Z,36.2
2022-07-27T00:51:58.886Z,36.19
2022-07-27T00:58:26.470Z,36.15
2022-07-27T01:04:57.109Z,36.13
2022-07-27T01:11:25.765Z,36.08
2022-07-27T01:18:05.414Z,36.1
2022-07-27T01:24:35.450Z,36.1
2022-07-27T01:31:05.830Z,36.05
2022-07-27T01:37:31.797Z,36.09
2022-07-27T01:44:01.773Z,35.98
2022-07-27T01:50:25.192Z,36.05
2022-07-27T01:56:49.476Z,36.1
2022-07-27T02:03:18.815Z,36.1
2022-07-27T02:09:42.285Z,36.09
2022-07-27T02:16:16.448Z,35.98
2022-07-27T02:22:53.128Z,36.05
2022-07-27T02:29:19.798Z,36.1
2022-07-27T02:35:47.373Z,36.05
2022-07-27T02:42:13.859Z,36.01
2022-07-27T02:48:41.853Z,36.07
2022-07-27T02:55:09.805Z,36.06
2022-07-27T03:01:33.027Z,35.98
2022-07-27T03:07:53.514Z,36
2022-07-27T03:14:26.940Z,36.02
2022-07-27T03:20:57.877Z,36.01
2022-07-27T03:27:44.537Z,35.96
2022-07-27T03:34:12.547Z,35.91
2022-07-27T03:40:44.971Z,36.03
2022-07-27T03:47:16.616Z,35.94
2022-07-27T03:53:40.496Z,35.93
2022-07-27T04:00:11.677Z,35.96
2022-07-27T04:06:41.905Z,35.96
2022-07-27T04:13:15.526Z,36.6
2022-07-27T04:19:44.980Z,36.8
2022-07-27T04:26:10.702Z,36.89
2022-07-27T04:32:38.900Z,36.92
2022-07-27T04:39:10.428Z,36.93
2022-07-27T04:45:35.833Z,37.04
2022-07-27T04:52:05.338Z,37.04
2022-07-27T04:58:27.713Z,37.12
2022-07-27T05:05:00.514Z,37.08
2022-07-27T05:11:31.692Z,37.04
2022-07-27T05:17:55.575Z,37.12
2022-07-27T05:24:17.891Z,37.1
2022-07-27T05:30:42.857Z,37.13
2022-07-27T05:37:06.547Z,37.12
2022-07-27T05:43:38.480Z,37.08
2022-07-27T05:50:10.939Z,37.11
2022-07-27T05:56:35.973Z,37.09
2022-07-27T06:02:59.753Z,37.07
2022-07-27T06:09:27.747Z,37.06
2022-07-27T06:15:53.193Z,37.04
2022-07-27T06:22:18.411Z,37.03
2022-07-27T06:28:48.066Z,36.8
2022-07-27T06:35:15.110Z,36.85
2022-07-27T06:41:43.536Z,36.78
2022-07-27T06:48:08.488Z,36.92
2022-07-27T06:54:41.935Z,37.01
2022-07-27T07:01:16.859Z,37.07
2022-07-27T07:07:43.781Z,37.08
2022-07-27T07:14:17.939Z,36.96
2022-07-27T07:20:45.299Z,37.05
2022-07-27T07:27:07.679Z,37.08
2022-07-27T07:33:30.527Z,37.03
2022-07-27T07:39:51.557Z,37.11
2022-07-27T07:46:21.979Z,36.87
2022-07-27T07:52:56.466Z,36.7
2022-07-27T07:59:20.570Z,36.4
2022-07-27T08:05:56.847Z,36.18
2022-07-27T08:12:27.724Z,35.93
2022-07-27T08:18:56.631Z,35.95
2022-07-27T08:25:25.980Z,35.95
2022-07-27T08:31:56.864Z,35.88
2022-07-27T08:38:45.631Z,35.82
2022-07-27T08:45:20.864Z,35.81
2022-07-27T08:52:05.984Z,35.86
2022-07-27T08:58:45.995Z,35.88
2022-07-27T09:05:19.883Z,35.86
2022-07-27T09:12:14.785Z,35.9
2022-07-27T09:18:46.772Z,35.85
2022-07-27T09:26:02.649Z,35.77
2022-07-27T09:32:52.846Z,35.83
2022-07-27T09:39:42.009Z,35.68
2022-07-27T09:46:34.138Z,35.73
2022-07-27T09:53:44.397Z,35.64
2022-07-27T10:00:39.478Z,35.83
2022-07-27T10:07:17.351Z,35.83
2022-07-27T10:13:47.621Z,35.79
2022-07-27T10:20:26.033Z,35.83
2022-07-27T10:27:02.025Z,35.88
2022-07-27T10:33:53.576Z,35.88
2022-07-27T10:40:54.780Z,35.81
2022-07-27T10:47:42.526Z,35.78
2022-07-27T10:54:31.086Z,35.72
2022-07-27T11:01:25.170Z,35.68
2022-07-27T11:08:38.294Z,35.62
2022-07-27T11:14:54.069Z,35.52
2022-07-27T11:21:49.686Z,35.58
2022-07-27T11:28:45.257Z,35.56
2022-07-27T11:35:20.915Z,35.55
2022-07-27T11:42:18.639Z,35.51
2022-07-27T11:49:10.938Z,35.28
2022-07-27T11:55:47.090Z,35.33
2022-07-27T12:02:32.654Z,35.13
2022-07-27T12:09:39.151Z,35.07
2022-07-27T12:16:36.514Z,35
2022-07-27T12:23:26.092Z,34.95
2022-07-27T12:30:07.693Z,34.95
2022-07-27T12:36:59.591Z,35.06
2022-07-27T12:43:33.569Z,35.06
2022-07-27T12:50:14.858Z,35.12
2022-07-27T12:56:59.782Z,35.15
2022-07-27T13:03:37.300Z,35.23
2022-07-27T13:10:23.393Z,35.19
2022-07-27T13:16:54.239Z,35.38
2022-07-27T13:23:23.051Z,35.41
2022-07-27T13:29:45.000Z,35.45
2022-07-27T13:36:27.159Z,35.41
2022-07-27T13:42:51.120Z,35.41
2022-07-27T13:49:18.650Z,35.47
2022-07-27T13:55:51.101Z,35.45
2022-07-27T14:02:23.127Z,35.43
2022-07-27T14:09:00.937Z,35.45
2022-07-27T14:15:50.926Z,35.33
2022-07-27T14:22:44.018Z,35.29
2022-07-27T14:29:10.399Z,35.19
2022-07-27T14:35:41.288Z,35.27
2022-07-27T14:42:16.729Z,35.32
2022-07-27T14:49:08.353Z,35.24
2022-07-27T14:55:32.705Z,35.28
2022-07-27T15:02:03.231Z,35.29
2022-07-27T15:08:29.056Z,35.29
2022-07-27T15:14:54.489Z,35.31
2022-07-27T15:21:26.790Z,35.32
2022-07-27T15:27:52.020Z,35.24
2022-07-27T15:34:18.242Z,35.09
2022-07-27T15:40:42.357Z,35.06
2022-07-27T15:47:12.951Z,35.07
2022-07-27T15:53:44.406Z,35.01
2022-07-27T16:00:15.960Z,35.09
2022-07-27T16:06:43.866Z,35.05
2022-07-27T16:13:12.750Z,34.9
2022-07-27T16:19:39.888Z,34.99
2022-07-27T16:26:08.703Z,35.11
2022-07-27T16:32:35.311Z,35.08
2022-07-27T16:38:59.763Z,35.2
2022-07-27T16:45:20.702Z,35.18
2022-07-27T16:51:45.756Z,35.23
2022-07-27T16:58:14.227Z,35.3
2022-07-27T17:04:44.556Z,35.23
2022-07-27T17:11:21.558Z,35.33
2022-07-27T17:17:50.815Z,35.23
2022-07-27T17:24:19.897Z,35.18
2022-07-27T17:30:46.914Z,35.23
2022-07-27T17:37:18.819Z,35.29
2022-07-27T17:43:42.252Z,35.3
2022-07-27T17:50:05.164Z,35.16
2022-07-27T17:56:34.826Z,34.96
2022-07-27T18:03:05.031Z,34.97
2022-07-27T18:09:30.258Z,35
2022-07-27T18:16:00.265Z,35.1
2022-07-27T18:22:25.891Z,35.08
2022-07-27T18:28:48.200Z,34.92
2022-07-27T18:35:21.882Z,34.91
2022-07-27T18:41:51.408Z,34.9
2022-07-27T18:48:17.750Z,34.9
2022-07-27T18:54:45.035Z,34.95
2022-07-27T19:01:13.184Z,34.97
2022-07-27T19:07:48.267Z,34.95
2022-07-27T19:14:14.298Z,34.82
2022-07-27T19:20:41.313Z,34.8
2022-07-27T19:27:06.843Z,34.91
2022-07-27T19:33:32.085Z,35.1
2022-07-27T19:40:20.637Z,35.22
2022-07-27T19:46:44.045Z,35.21
2022-07-27T19:53:15.945Z,35.11
2022-07-27T19:59:55.190Z,35
2022-07-27T20:06:17.126Z,35.2
2022-07-27T20:12:50.330Z,35.31
2022-07-27T20:19:27.903Z,35.28
2022-07-27T20:25:52.570Z,35.29
2022-07-27T20:32:21.468Z,35.27
2022-07-27T20:38:57.482Z,35.34
2022-07-27T20:45:28.481Z,35.36
2022-07-27T20:51:54.956Z,35.41
2022-07-27T20:58:23.948Z,35.35
2022-07-27T21:04:49.955Z,35.37
2022-07-27T21:11:18.360Z,35.42
2022-07-27T21:17:44.330Z,35.39
2022-07-27T21:24:11.768Z,35.42
2022-07-27T21:30:41.383Z,35.43
2022-07-27T21:37:12.909Z,35.46
2022-07-27T21:43:39.870Z,35.43
2022-07-27T21:50:13.907Z,35.44
2022-07-27T21:56:50.490Z,35.5
2022-07-27T22:03:14.944Z,35.56
2022-07-27T22:09:43.820Z,35.55
2022-07-27T22:16:15.132Z,35.5
2022-07-27T22:22:38.878Z,35.58
2022-07-27T22:29:06.389Z,35.6
2022-07-27T22:35:34.968Z,35.63
2022-07-27T22:42:02.722Z,35.6
2022-07-27T22:48:26.008Z,35.65
2022-07-27T22:54:50.413Z,35.64
2022-07-27T23:01:38.421Z,35.41
2022-07-27T23:07:56.168Z,35.46
2022-07-27T23:14:22.423Z,35.52
2022-07-27T23:20:48.474Z,35.46
2022-07-27T23:27:12.185Z,35.47
2022-07-27T23:33:44.202Z,35.4
2022-07-27T23:40:14.430Z,35.29
2022-07-27T23:46:40.339Z,35.18
2022-07-27T23:53:14.440Z,35.28
2022-07-27T23:59:36.531Z,35.3
